N177MA KGPM-KORL
Flight info
| Callsign | N177MA |
|---|---|
| Flight time | 1h 51m |
| Altitude | 17500 |
| Route | CQY V94 GGG V114 LSU V70 PCU V552 SJI NUN TERES T336 PUNQU |
| Aircraft | P51/L-VGDW/C |
Departure
| Time | 2026-05-06 22:36 |
|---|---|
| Airport | Grand Prairie Municipal Airport (KGPM) |
Arrival
| Time | 2026-05-07 00:27 |
|---|---|
| Airport | Orlando Executive Airport (KORL) |
| Time | Latitude | Longitude | Altitude | Speed | Heading |
|---|---|---|---|---|---|
| 2026-05-06 22:29 | 32.69788 | -97.04464 | 595 ft | 0 kts | 98° |
| 2026-05-06 22:30 | 32.69788 | -97.04460 | 595 ft | 3 kts | 89° |
| 2026-05-06 22:30 | 32.69789 | -97.04456 | 595 ft | 1 kts | 126° |
| 2026-05-06 22:31 | 32.69782 | -97.04466 | 595 ft | 4 kts | 293° |
| 2026-05-06 22:31 | 32.69785 | -97.04522 | 595 ft | 11 kts | 277° |
| 2026-05-06 22:31 | 32.69787 | -97.04570 | 595 ft | 9 kts | 266° |
| 2026-05-06 22:31 | 32.69754 | -97.04588 | 595 ft | 6 kts | 185° |
| 2026-05-06 22:32 | 32.69690 | -97.04588 | 595 ft | 12 kts | 181° |
| 2026-05-06 22:32 | 32.69590 | -97.04586 | 595 ft | 15 kts | 180° |
| 2026-05-06 22:32 | 32.69534 | -97.04589 | 595 ft | 8 kts | 175° |
| 2026-05-06 22:32 | 32.69469 | -97.04587 | 595 ft | 6 kts | 180° |
| 2026-05-06 22:33 | 32.69415 | -97.04588 | 595 ft | 9 kts | 181° |
| 2026-05-06 22:33 | 32.69384 | -97.04609 | 595 ft | 5 kts | 295° |
| 2026-05-06 22:33 | 32.69385 | -97.04616 | 595 ft | 0 kts | 262° |
| 2026-05-06 22:34 | 32.69385 | -97.04634 | 595 ft | 5 kts | 274° |
| 2026-05-06 22:34 | 32.69388 | -97.04653 | 595 ft | 4 kts | 304° |
| 2026-05-06 22:34 | 32.69399 | -97.04658 | 595 ft | 2 kts | 0° |
| 2026-05-06 22:35 | 32.69402 | -97.04658 | 595 ft | 0 kts | 359° |
| 2026-05-06 22:35 | 32.69441 | -97.04659 | 595 ft | 28 kts | 0° |
| 2026-05-06 22:35 | 32.69850 | -97.04659 | 597 ft | 88 kts | 358° |
| 2026-05-06 22:36 | 32.70492 | -97.04709 | 839 ft | 94 kts | 359° |
| 2026-05-06 22:36 | 32.71173 | -97.04762 | 1247 ft | 107 kts | 11° |
| 2026-05-06 22:36 | 32.71964 | -97.04459 | 1542 ft | 131 kts | 42° |
| 2026-05-06 22:36 | 32.72230 | -97.03391 | 1996 ft | 151 kts | 99° |
| 2026-05-06 22:37 | 32.71640 | -97.02266 | 1933 ft | 167 kts | 139° |
| 2026-05-06 22:37 | 32.70634 | -97.01573 | 1871 ft | 166 kts | 158° |
| 2026-05-06 22:37 | 32.69625 | -97.01226 | 2136 ft | 146 kts | 162° |
| 2026-05-06 22:37 | 32.68607 | -97.00899 | 2001 ft | 164 kts | 162° |
| 2026-05-06 22:38 | 32.67420 | -97.00502 | 1882 ft | 187 kts | 163° |
| 2026-05-06 22:38 | 32.66134 | -97.00067 | 1957 ft | 194 kts | 166° |
| 2026-05-06 22:38 | 32.64815 | -96.99761 | 2080 ft | 202 kts | 171° |
| 2026-05-06 22:38 | 32.63349 | -96.99739 | 2213 ft | 214 kts | 183° |
| 2026-05-06 22:39 | 32.61834 | -96.99946 | 2364 ft | 226 kts | 189° |
| 2026-05-06 22:39 | 32.60218 | -97.00274 | 2551 ft | 246 kts | 190° |
| 2026-05-06 22:39 | 32.58481 | -97.00662 | 2715 ft | 261 kts | 191° |
| 2026-05-06 22:39 | 32.56654 | -97.01143 | 2754 ft | 276 kts | 193° |
| 2026-05-06 22:40 | 32.54705 | -97.01562 | 2738 ft | 283 kts | 191° |
| 2026-05-06 22:40 | 32.52762 | -97.01985 | 2722 ft | 286 kts | 191° |
| 2026-05-06 22:40 | 32.50809 | -97.01939 | 2730 ft | 285 kts | 169° |
| 2026-05-06 22:40 | 32.48883 | -97.01377 | 2735 ft | 286 kts | 163° |
| 2026-05-06 22:41 | 32.45121 | -96.99764 | 2709 ft | 288 kts | 158° |
| 2026-05-06 22:41 | 32.43278 | -96.98909 | 2964 ft | 278 kts | 158° |
| 2026-05-06 22:41 | 32.41534 | -96.98092 | 3488 ft | 261 kts | 155° |
| 2026-05-06 22:42 | 32.40130 | -96.96833 | 3937 ft | 250 kts | 129° |
| 2026-05-06 22:42 | 32.39379 | -96.95042 | 4497 ft | 240 kts | 109° |
| 2026-05-06 22:42 | 32.38856 | -96.93184 | 5135 ft | 237 kts | 108° |
| 2026-05-06 22:42 | 32.38354 | -96.91337 | 5739 ft | 236 kts | 108° |
| 2026-05-06 22:43 | 32.37851 | -96.89486 | 6315 ft | 237 kts | 109° |
| 2026-05-06 22:43 | 32.37335 | -96.87617 | 6772 ft | 247 kts | 110° |
| 2026-05-06 22:43 | 32.36773 | -96.85622 | 7253 ft | 256 kts | 112° |
| 2026-05-06 22:43 | 32.36198 | -96.83605 | 7749 ft | 262 kts | 112° |
| 2026-05-06 22:44 | 32.35608 | -96.81553 | 8261 ft | 266 kts | 112° |
| 2026-05-06 22:44 | 32.35012 | -96.79473 | 8781 ft | 269 kts | 113° |
| 2026-05-06 22:44 | 32.34410 | -96.77361 | 9315 ft | 272 kts | 114° |
| 2026-05-06 22:44 | 32.33802 | -96.75226 | 9845 ft | 274 kts | 114° |
| 2026-05-06 22:45 | 32.33190 | -96.73078 | 10374 ft | 277 kts | 114° |
| 2026-05-06 22:45 | 32.32571 | -96.70905 | 10903 ft | 280 kts | 115° |
| 2026-05-06 22:45 | 32.31965 | -96.68760 | 11385 ft | 269 kts | 116° |
| 2026-05-06 22:45 | 32.31388 | -96.66699 | 11830 ft | 260 kts | 116° |
| 2026-05-06 22:46 | 32.30822 | -96.64711 | 12244 ft | 253 kts | 118° |
| 2026-05-06 22:46 | 32.30247 | -96.62732 | 12652 ft | 257 kts | 118° |
| 2026-05-06 22:46 | 32.29647 | -96.60703 | 13072 ft | 266 kts | 118° |
| 2026-05-06 22:46 | 32.29028 | -96.58614 | 13490 ft | 273 kts | 118° |
| 2026-05-06 22:47 | 32.28402 | -96.56478 | 13914 ft | 278 kts | 118° |
| 2026-05-06 22:47 | 32.27763 | -96.54298 | 14350 ft | 283 kts | 118° |
| 2026-05-06 22:47 | 32.27121 | -96.52098 | 14830 ft | 283 kts | 118° |
| 2026-05-06 22:47 | 32.26512 | -96.49975 | 15334 ft | 259 kts | 119° |
| 2026-05-06 22:48 | 32.25968 | -96.47993 | 15808 ft | 252 kts | 119° |
| 2026-05-06 22:48 | 32.25420 | -96.46018 | 16285 ft | 257 kts | 120° |
| 2026-05-06 22:48 | 32.24843 | -96.43987 | 16752 ft | 262 kts | 120° |
| 2026-05-06 22:48 | 32.24247 | -96.41925 | 17219 ft | 268 kts | 120° |
| 2026-05-06 22:49 | 32.23629 | -96.39802 | 17511 ft | 281 kts | 121° |
| 2026-05-06 22:49 | 32.22949 | -96.37534 | 17541 ft | 303 kts | 120° |
| 2026-05-06 22:49 | 32.22217 | -96.35125 | 17517 ft | 318 kts | 120° |
| 2026-05-06 22:49 | 32.21479 | -96.32641 | 17505 ft | 324 kts | 119° |
| 2026-05-06 22:50 | 32.20739 | -96.30124 | 17503 ft | 325 kts | 119° |
| 2026-05-06 22:50 | 32.20002 | -96.27592 | 17508 ft | 328 kts | 119° |
| 2026-05-06 22:50 | 32.19258 | -96.25020 | 17503 ft | 333 kts | 118° |
| 2026-05-06 22:50 | 32.18740 | -96.22312 | 17505 ft | 345 kts | 104° |
| 2026-05-06 22:51 | 32.18777 | -96.19449 | 17512 ft | 354 kts | 86° |
| 2026-05-06 22:51 | 32.19213 | -96.16592 | 17519 ft | 358 kts | 83° |
| 2026-05-06 22:51 | 32.19680 | -96.13665 | 17510 ft | 363 kts | 83° |
| 2026-05-06 22:51 | 32.20152 | -96.10718 | 17502 ft | 367 kts | 83° |
| 2026-05-06 22:52 | 32.20618 | -96.07813 | 17500 ft | 370 kts | 83° |
| 2026-05-06 22:52 | 32.21097 | -96.04839 | 17497 ft | 372 kts | 83° |
| 2026-05-06 22:52 | 32.21582 | -96.01830 | 17496 ft | 373 kts | 83° |
| 2026-05-06 22:52 | 32.22067 | -95.98825 | 17496 ft | 374 kts | 83° |
| 2026-05-06 22:53 | 32.22549 | -95.95843 | 17494 ft | 375 kts | 83° |
| 2026-05-06 22:53 | 32.23041 | -95.92793 | 17494 ft | 377 kts | 83° |
| 2026-05-06 22:53 | 32.23533 | -95.89735 | 17492 ft | 377 kts | 83° |
| 2026-05-06 22:53 | 32.24011 | -95.86763 | 17495 ft | 378 kts | 83° |
| 2026-05-06 22:54 | 32.24493 | -95.83760 | 17493 ft | 379 kts | 83° |
| 2026-05-06 22:54 | 32.24985 | -95.80701 | 17493 ft | 379 kts | 83° |
| 2026-05-06 22:54 | 32.25476 | -95.77647 | 17491 ft | 379 kts | 83° |
| 2026-05-06 22:54 | 32.25968 | -95.74586 | 17492 ft | 379 kts | 83° |
| 2026-05-06 22:55 | 32.26458 | -95.71533 | 17492 ft | 378 kts | 83° |
| 2026-05-06 22:55 | 32.26950 | -95.68474 | 17491 ft | 379 kts | 83° |
| 2026-05-06 22:55 | 32.27439 | -95.65415 | 17493 ft | 379 kts | 83° |
| 2026-05-06 22:55 | 32.27927 | -95.62351 | 17502 ft | 380 kts | 83° |
| 2026-05-06 22:56 | 32.28420 | -95.59253 | 17505 ft | 380 kts | 83° |
| 2026-05-06 22:56 | 32.28909 | -95.56185 | 17508 ft | 379 kts | 83° |
| 2026-05-06 22:56 | 32.29233 | -95.54148 | 17509 ft | 379 kts | 83° |
| 2026-05-06 22:56 | 32.29719 | -95.51082 | 17508 ft | 380 kts | 83° |
| 2026-05-06 22:57 | 32.30361 | -95.47030 | 17508 ft | 378 kts | 83° |
| 2026-05-06 22:57 | 32.30846 | -95.43971 | 17508 ft | 378 kts | 83° |
| 2026-05-06 22:57 | 32.31329 | -95.40925 | 17510 ft | 377 kts | 83° |
| 2026-05-06 22:57 | 32.31654 | -95.38869 | 17511 ft | 377 kts | 83° |
| 2026-05-06 22:58 | 32.32135 | -95.35820 | 17510 ft | 377 kts | 83° |
| 2026-05-06 22:58 | 32.32615 | -95.32781 | 17510 ft | 376 kts | 83° |
| 2026-05-06 22:58 | 32.33094 | -95.29738 | 17509 ft | 376 kts | 83° |
| 2026-05-06 22:58 | 32.33570 | -95.26699 | 17513 ft | 376 kts | 84° |
| 2026-05-06 22:59 | 32.34046 | -95.23659 | 17512 ft | 376 kts | 83° |
| 2026-05-06 22:59 | 32.34520 | -95.20629 | 17514 ft | 376 kts | 84° |
| 2026-05-06 22:59 | 32.34997 | -95.17579 | 17510 ft | 376 kts | 83° |
| 2026-05-06 22:59 | 32.35469 | -95.14549 | 17512 ft | 376 kts | 84° |
| 2026-05-06 23:00 | 32.35939 | -95.11507 | 17508 ft | 376 kts | 84° |
| 2026-05-06 23:00 | 32.36408 | -95.08466 | 17506 ft | 376 kts | 84° |
| 2026-05-06 23:00 | 32.36881 | -95.05414 | 17505 ft | 377 kts | 84° |
| 2026-05-06 23:00 | 32.37360 | -95.02360 | 17504 ft | 378 kts | 84° |
| 2026-05-06 23:01 | 32.37827 | -94.99340 | 17500 ft | 378 kts | 84° |
| 2026-05-06 23:01 | 32.38303 | -94.96239 | 17498 ft | 379 kts | 84° |
| 2026-05-06 23:01 | 32.38770 | -94.93212 | 17505 ft | 378 kts | 84° |
| 2026-05-06 23:01 | 32.39245 | -94.90115 | 17509 ft | 377 kts | 84° |
| 2026-05-06 23:02 | 32.39706 | -94.87105 | 17503 ft | 377 kts | 84° |
| 2026-05-06 23:02 | 32.40172 | -94.84052 | 17498 ft | 377 kts | 84° |
| 2026-05-06 23:02 | 32.40637 | -94.81004 | 17494 ft | 376 kts | 84° |
| 2026-05-06 23:02 | 32.40913 | -94.77953 | 17498 ft | 371 kts | 96° |
| 2026-05-06 23:03 | 32.40650 | -94.74958 | 17495 ft | 362 kts | 110° |
| 2026-05-06 23:03 | 32.39894 | -94.72152 | 17492 ft | 353 kts | 122° |
| 2026-05-06 23:03 | 32.38829 | -94.69574 | 17496 ft | 346 kts | 129° |
| 2026-05-06 23:03 | 32.37620 | -94.67124 | 17489 ft | 344 kts | 132° |
| 2026-05-06 23:04 | 32.36361 | -94.64716 | 17487 ft | 343 kts | 132° |
| 2026-05-06 23:04 | 32.35098 | -94.62322 | 17489 ft | 343 kts | 132° |
| 2026-05-06 23:04 | 32.33846 | -94.59928 | 17491 ft | 343 kts | 132° |
| 2026-05-06 23:04 | 32.32599 | -94.57514 | 17495 ft | 343 kts | 131° |
| 2026-05-06 23:05 | 32.31367 | -94.55107 | 17494 ft | 344 kts | 131° |
| 2026-05-06 23:05 | 32.30129 | -94.52671 | 17493 ft | 345 kts | 131° |
| 2026-05-06 23:05 | 32.28894 | -94.50232 | 17494 ft | 346 kts | 131° |
| 2026-05-06 23:05 | 32.27659 | -94.47791 | 17494 ft | 346 kts | 131° |
| 2026-05-06 23:06 | 32.26424 | -94.45349 | 17494 ft | 347 kts | 131° |
| 2026-05-06 23:06 | 32.24946 | -94.42426 | 17494 ft | 348 kts | 131° |
| 2026-05-06 23:06 | 32.22451 | -94.37490 | 17494 ft | 350 kts | 130° |
| 2026-05-06 23:06 | 32.19963 | -94.32570 | 17497 ft | 350 kts | 130° |
| 2026-05-06 23:07 | 32.17472 | -94.27647 | 17493 ft | 350 kts | 130° |
| 2026-05-06 23:07 | 32.14972 | -94.22716 | 17490 ft | 350 kts | 130° |
| 2026-05-06 23:07 | 32.12464 | -94.17777 | 17481 ft | 350 kts | 130° |
| 2026-05-06 23:07 | 32.09968 | -94.12873 | 17480 ft | 349 kts | 131° |
| 2026-05-06 23:08 | 32.07463 | -94.07950 | 17486 ft | 349 kts | 131° |
| 2026-05-06 23:08 | 32.04966 | -94.03052 | 17481 ft | 349 kts | 130° |
| 2026-05-06 23:08 | 32.02468 | -93.98154 | 17480 ft | 349 kts | 130° |
| 2026-05-06 23:08 | 31.99964 | -93.93229 | 17479 ft | 349 kts | 130° |
| 2026-05-06 23:09 | 31.97446 | -93.88328 | 17474 ft | 350 kts | 130° |
| 2026-05-06 23:09 | 31.94932 | -93.83431 | 17476 ft | 350 kts | 130° |
| 2026-05-06 23:09 | 31.92417 | -93.78531 | 17469 ft | 350 kts | 130° |
| 2026-05-06 23:09 | 31.89893 | -93.73641 | 17471 ft | 349 kts | 131° |
| 2026-05-06 23:10 | 31.87413 | -93.68810 | 17459 ft | 349 kts | 131° |
| 2026-05-06 23:10 | 31.84862 | -93.63887 | 17462 ft | 349 kts | 131° |
| 2026-05-06 23:10 | 31.82343 | -93.58970 | 17455 ft | 350 kts | 130° |
| 2026-05-06 23:10 | 31.79841 | -93.54096 | 17452 ft | 350 kts | 130° |
| 2026-05-06 23:11 | 31.77338 | -93.49242 | 17443 ft | 350 kts | 130° |
| 2026-05-06 23:11 | 31.74808 | -93.44356 | 17450 ft | 351 kts | 130° |
| 2026-05-06 23:11 | 31.72267 | -93.39458 | 17437 ft | 352 kts | 130° |
| 2026-05-06 23:11 | 31.69713 | -93.34543 | 17422 ft | 352 kts | 130° |
| 2026-05-06 23:12 | 31.67164 | -93.29641 | 17423 ft | 352 kts | 130° |
| 2026-05-06 23:12 | 31.64610 | -93.24734 | 17426 ft | 351 kts | 130° |
| 2026-05-06 23:12 | 31.62069 | -93.19857 | 17426 ft | 351 kts | 130° |
| 2026-05-06 23:12 | 31.59526 | -93.14979 | 17429 ft | 350 kts | 130° |
| 2026-05-06 23:13 | 31.56977 | -93.10102 | 17420 ft | 350 kts | 130° |
| 2026-05-06 23:13 | 31.54435 | -93.05239 | 17419 ft | 350 kts | 130° |
| 2026-05-06 23:13 | 31.51886 | -93.00371 | 17417 ft | 350 kts | 130° |
| 2026-05-06 23:13 | 31.49338 | -92.95475 | 17347 ft | 355 kts | 127° |
| 2026-05-06 23:14 | 31.46811 | -92.90592 | 17413 ft | 350 kts | 130° |
| 2026-05-06 23:14 | 31.44238 | -92.85756 | 17408 ft | 350 kts | 130° |
| 2026-05-06 23:14 | 31.41674 | -92.80918 | 17400 ft | 350 kts | 130° |
| 2026-05-06 23:14 | 31.39110 | -92.76067 | 17395 ft | 351 kts | 130° |
| 2026-05-06 23:15 | 31.36542 | -92.71203 | 17392 ft | 351 kts | 130° |
| 2026-05-06 23:15 | 31.33989 | -92.66372 | 17394 ft | 350 kts | 130° |
| 2026-05-06 23:15 | 31.31420 | -92.61509 | 17396 ft | 350 kts | 130° |
| 2026-05-06 23:15 | 31.28850 | -92.56676 | 17395 ft | 350 kts | 131° |
| 2026-05-06 23:16 | 31.26253 | -92.51824 | 17394 ft | 351 kts | 130° |
| 2026-05-06 23:16 | 31.23599 | -92.47054 | 17394 ft | 349 kts | 134° |
| 2026-05-06 23:16 | 31.21363 | -92.43046 | 17407 ft | 353 kts | 128° |
| 2026-05-06 23:16 | 31.20008 | -92.40684 | 17398 ft | 348 kts | 136° |
| 2026-05-06 23:17 | 31.18528 | -92.38475 | 17365 ft | 347 kts | 137° |
| 2026-05-06 23:17 | 31.16973 | -92.36308 | 17373 ft | 346 kts | 138° |
| 2026-05-06 23:17 | 31.15465 | -92.34127 | 17392 ft | 347 kts | 136° |
| 2026-05-06 23:17 | 31.13992 | -92.31893 | 17419 ft | 346 kts | 136° |
| 2026-05-06 23:18 | 31.12557 | -92.29639 | 17382 ft | 347 kts | 135° |
| 2026-05-06 23:18 | 31.11121 | -92.27392 | 17446 ft | 345 kts | 135° |
| 2026-05-06 23:18 | 31.09684 | -92.25144 | 17450 ft | 344 kts | 135° |
| 2026-05-06 23:18 | 31.08262 | -92.22897 | 17458 ft | 342 kts | 137° |
| 2026-05-06 23:19 | 31.06762 | -92.20733 | 17368 ft | 346 kts | 137° |
| 2026-05-06 23:19 | 31.05308 | -92.18486 | 17364 ft | 347 kts | 134° |
| 2026-05-06 23:19 | 31.03895 | -92.16233 | 17487 ft | 342 kts | 134° |
| 2026-05-06 23:19 | 31.02510 | -92.13971 | 17448 ft | 343 kts | 134° |
| 2026-05-06 23:20 | 31.01085 | -92.11723 | 17439 ft | 344 kts | 135° |
| 2026-05-06 23:20 | 30.99712 | -92.09434 | 17366 ft | 347 kts | 133° |
| 2026-05-06 23:20 | 30.98292 | -92.07168 | 17405 ft | 345 kts | 134° |
| 2026-05-06 23:20 | 30.96854 | -92.04942 | 17393 ft | 343 kts | 136° |
| 2026-05-06 23:21 | 30.95411 | -92.02714 | 17435 ft | 344 kts | 134° |
| 2026-05-06 23:21 | 30.94038 | -92.00414 | 17373 ft | 346 kts | 134° |
| 2026-05-06 23:21 | 30.92595 | -91.98190 | 17412 ft | 343 kts | 135° |
| 2026-05-06 23:21 | 30.91141 | -91.95986 | 17410 ft | 344 kts | 135° |
| 2026-05-06 23:22 | 30.89689 | -91.93768 | 17411 ft | 344 kts | 135° |
| 2026-05-06 23:22 | 30.88242 | -91.91540 | 17407 ft | 345 kts | 134° |
| 2026-05-06 23:22 | 30.86805 | -91.89316 | 17409 ft | 345 kts | 134° |
| 2026-05-06 23:22 | 30.85361 | -91.87075 | 17409 ft | 346 kts | 134° |
| 2026-05-06 23:23 | 30.83921 | -91.84831 | 17408 ft | 346 kts | 134° |
| 2026-05-06 23:23 | 30.82492 | -91.82599 | 17407 ft | 345 kts | 134° |
| 2026-05-06 23:23 | 30.81058 | -91.80360 | 17411 ft | 344 kts | 134° |
| 2026-05-06 23:23 | 30.79631 | -91.78134 | 17412 ft | 344 kts | 134° |
| 2026-05-06 23:24 | 30.78204 | -91.75897 | 17413 ft | 344 kts | 134° |
| 2026-05-06 23:24 | 30.76773 | -91.73660 | 17410 ft | 344 kts | 134° |
| 2026-05-06 23:24 | 30.75346 | -91.71439 | 17409 ft | 343 kts | 134° |
| 2026-05-06 23:24 | 30.73934 | -91.69244 | 17409 ft | 343 kts | 134° |
| 2026-05-06 23:25 | 30.72488 | -91.66997 | 17409 ft | 343 kts | 134° |
| 2026-05-06 23:25 | 30.71069 | -91.64780 | 17417 ft | 342 kts | 134° |
| 2026-05-06 23:25 | 30.69663 | -91.62592 | 17413 ft | 342 kts | 134° |
| 2026-05-06 23:25 | 30.68224 | -91.60359 | 17411 ft | 342 kts | 134° |
| 2026-05-06 23:26 | 30.66421 | -91.57562 | 17414 ft | 343 kts | 134° |
| 2026-05-06 23:26 | 30.63540 | -91.53103 | 17413 ft | 346 kts | 134° |
| 2026-05-06 23:26 | 30.60600 | -91.48562 | 17411 ft | 348 kts | 134° |
| 2026-05-06 23:26 | 30.57685 | -91.44063 | 17413 ft | 350 kts | 134° |
| 2026-05-06 23:27 | 30.54757 | -91.39531 | 17419 ft | 351 kts | 134° |
| 2026-05-06 23:27 | 30.51855 | -91.35062 | 17419 ft | 352 kts | 134° |
| 2026-05-06 23:27 | 30.49327 | -91.30162 | 17432 ft | 362 kts | 116° |
| 2026-05-06 23:27 | 30.48578 | -91.24355 | 17441 ft | 370 kts | 90° |
| 2026-05-06 23:28 | 30.48843 | -91.18380 | 17429 ft | 371 kts | 89° |
| 2026-05-06 23:28 | 30.49145 | -91.12416 | 17428 ft | 372 kts | 89° |
| 2026-05-06 23:28 | 30.49464 | -91.06422 | 17421 ft | 371 kts | 89° |
| 2026-05-06 23:28 | 30.49781 | -91.00460 | 17422 ft | 370 kts | 89° |
| 2026-05-06 23:29 | 30.50091 | -90.94517 | 17425 ft | 369 kts | 89° |
| 2026-05-06 23:29 | 30.50407 | -90.88577 | 17433 ft | 369 kts | 89° |
| 2026-05-06 23:29 | 30.50712 | -90.82565 | 17430 ft | 369 kts | 89° |
| 2026-05-06 23:29 | 30.51012 | -90.76701 | 17432 ft | 368 kts | 89° |
| 2026-05-06 23:30 | 30.51307 | -90.70790 | 17435 ft | 368 kts | 89° |
| 2026-05-06 23:30 | 30.51603 | -90.64854 | 17433 ft | 368 kts | 89° |
| 2026-05-06 23:30 | 30.51897 | -90.58947 | 17432 ft | 367 kts | 89° |
| 2026-05-06 23:30 | 30.52188 | -90.53021 | 17431 ft | 367 kts | 89° |
| 2026-05-06 23:31 | 30.52476 | -90.47110 | 17431 ft | 368 kts | 89° |
| 2026-05-06 23:31 | 30.52756 | -90.41187 | 17435 ft | 369 kts | 89° |
| 2026-05-06 23:31 | 30.53030 | -90.35237 | 17433 ft | 369 kts | 89° |
| 2026-05-06 23:31 | 30.53316 | -90.29291 | 17432 ft | 369 kts | 89° |
| 2026-05-06 23:32 | 30.53595 | -90.23352 | 17432 ft | 369 kts | 89° |
| 2026-05-06 23:32 | 30.53867 | -90.17381 | 17450 ft | 369 kts | 89° |
| 2026-05-06 23:32 | 30.54140 | -90.11434 | 17438 ft | 370 kts | 89° |
| 2026-05-06 23:32 | 30.54414 | -90.05483 | 17440 ft | 369 kts | 89° |
| 2026-05-06 23:33 | 30.54684 | -89.99525 | 17439 ft | 368 kts | 89° |
| 2026-05-06 23:33 | 30.54947 | -89.93621 | 17441 ft | 368 kts | 89° |
| 2026-05-06 23:33 | 30.55206 | -89.87699 | 17444 ft | 367 kts | 89° |
| 2026-05-06 23:33 | 30.55463 | -89.81770 | 17445 ft | 367 kts | 89° |
| 2026-05-06 23:34 | 30.55726 | -89.75854 | 17449 ft | 367 kts | 88° |
| 2026-05-06 23:34 | 30.56229 | -89.69958 | 17455 ft | 367 kts | 84° |
| 2026-05-06 23:34 | 30.56953 | -89.64099 | 17453 ft | 367 kts | 83° |
| 2026-05-06 23:34 | 30.57693 | -89.58249 | 17461 ft | 367 kts | 83° |
| 2026-05-06 23:35 | 30.58426 | -89.52378 | 17456 ft | 367 kts | 83° |
| 2026-05-06 23:35 | 30.59144 | -89.46515 | 17463 ft | 367 kts | 83° |
| 2026-05-06 23:35 | 30.59864 | -89.40657 | 17466 ft | 368 kts | 83° |
| 2026-05-06 23:35 | 30.60587 | -89.34776 | 17468 ft | 369 kts | 83° |
| 2026-05-06 23:36 | 30.61312 | -89.28861 | 17475 ft | 369 kts | 83° |
| 2026-05-06 23:36 | 30.61893 | -89.24087 | 17477 ft | 369 kts | 83° |
| 2026-05-06 23:36 | 30.62251 | -89.21133 | 17478 ft | 369 kts | 83° |
| 2026-05-06 23:36 | 30.62608 | -89.18192 | 17477 ft | 368 kts | 83° |
| 2026-05-06 23:37 | 30.62965 | -89.15256 | 17484 ft | 369 kts | 83° |
| 2026-05-06 23:37 | 30.63326 | -89.12273 | 17483 ft | 374 kts | 83° |
| 2026-05-06 23:37 | 30.63687 | -89.09272 | 17480 ft | 376 kts | 83° |
| 2026-05-06 23:37 | 30.64170 | -89.05240 | 17477 ft | 379 kts | 83° |
| 2026-05-06 23:38 | 30.64895 | -88.99135 | 17477 ft | 382 kts | 83° |
| 2026-05-06 23:38 | 30.65622 | -88.92993 | 17472 ft | 383 kts | 83° |
| 2026-05-06 23:38 | 30.66351 | -88.86846 | 17485 ft | 384 kts | 84° |
| 2026-05-06 23:38 | 30.67077 | -88.80686 | 17484 ft | 385 kts | 83° |
| 2026-05-06 23:39 | 30.67804 | -88.74508 | 17489 ft | 386 kts | 83° |
| 2026-05-06 23:39 | 30.68526 | -88.68342 | 17489 ft | 386 kts | 83° |
| 2026-05-06 23:39 | 30.69250 | -88.62146 | 17494 ft | 386 kts | 83° |
| 2026-05-06 23:39 | 30.69961 | -88.56056 | 17496 ft | 386 kts | 84° |
| 2026-05-06 23:40 | 30.70678 | -88.49881 | 17503 ft | 386 kts | 84° |
| 2026-05-06 23:40 | 30.71158 | -88.45700 | 17506 ft | 386 kts | 83° |
| 2026-05-06 23:40 | 30.71946 | -88.37515 | 17503 ft | 385 kts | 91° |
| 2026-05-06 23:40 | 30.71271 | -88.31380 | 17504 ft | 383 kts | 107° |
| 2026-05-06 23:41 | 30.69856 | -88.25423 | 17497 ft | 383 kts | 110° |
| 2026-05-06 23:41 | 30.68333 | -88.19499 | 17508 ft | 382 kts | 110° |
| 2026-05-06 23:41 | 30.66829 | -88.13568 | 17518 ft | 382 kts | 110° |
| 2026-05-06 23:41 | 30.65354 | -88.07630 | 17527 ft | 382 kts | 110° |
| 2026-05-06 23:42 | 30.64387 | -88.03711 | 17523 ft | 382 kts | 109° |
| 2026-05-06 23:42 | 30.62906 | -87.97702 | 17521 ft | 382 kts | 109° |
| 2026-05-06 23:42 | 30.61470 | -87.91854 | 17523 ft | 382 kts | 109° |
| 2026-05-06 23:42 | 30.59998 | -87.85913 | 17513 ft | 383 kts | 109° |
| 2026-05-06 23:43 | 30.58513 | -87.79951 | 17507 ft | 385 kts | 109° |
| 2026-05-06 23:43 | 30.57034 | -87.73993 | 17507 ft | 385 kts | 109° |
| 2026-05-06 23:43 | 30.55538 | -87.68015 | 17507 ft | 386 kts | 109° |
| 2026-05-06 23:43 | 30.54044 | -87.62029 | 17511 ft | 387 kts | 110° |
| 2026-05-06 23:44 | 30.52604 | -87.56270 | 17516 ft | 387 kts | 109° |
| 2026-05-06 23:44 | 30.51091 | -87.50258 | 17517 ft | 387 kts | 110° |
| 2026-05-06 23:44 | 30.49580 | -87.44263 | 17518 ft | 387 kts | 109° |
| 2026-05-06 23:44 | 30.48069 | -87.38284 | 17520 ft | 388 kts | 110° |
| 2026-05-06 23:45 | 30.46694 | -87.32224 | 17524 ft | 388 kts | 106° |
| 2026-05-06 23:45 | 30.45627 | -87.26120 | 17521 ft | 388 kts | 104° |
| 2026-05-06 23:45 | 30.44609 | -87.19988 | 17523 ft | 388 kts | 104° |
| 2026-05-06 23:45 | 30.43585 | -87.13861 | 17522 ft | 388 kts | 104° |
| 2026-05-06 23:46 | 30.42551 | -87.07710 | 17526 ft | 387 kts | 103° |
| 2026-05-06 23:46 | 30.41520 | -87.01577 | 17530 ft | 387 kts | 103° |
| 2026-05-06 23:46 | 30.40474 | -86.95392 | 17531 ft | 387 kts | 104° |
| 2026-05-06 23:46 | 30.39447 | -86.89351 | 17531 ft | 387 kts | 104° |
| 2026-05-06 23:47 | 30.38392 | -86.83149 | 17531 ft | 386 kts | 103° |
| 2026-05-06 23:47 | 30.37369 | -86.77165 | 17519 ft | 385 kts | 104° |
| 2026-05-06 23:47 | 30.36322 | -86.71052 | 17514 ft | 385 kts | 104° |
| 2026-05-06 23:47 | 30.35289 | -86.64997 | 17525 ft | 383 kts | 103° |
| 2026-05-06 23:48 | 30.34249 | -86.58953 | 17516 ft | 383 kts | 104° |
| 2026-05-06 23:48 | 30.33203 | -86.52925 | 17533 ft | 382 kts | 103° |
| 2026-05-06 23:48 | 30.32154 | -86.46887 | 17537 ft | 382 kts | 103° |
| 2026-05-06 23:48 | 30.31106 | -86.40864 | 17541 ft | 382 kts | 104° |
| 2026-05-06 23:49 | 30.30057 | -86.34843 | 17544 ft | 382 kts | 103° |
| 2026-05-06 23:49 | 30.29000 | -86.28813 | 17540 ft | 383 kts | 103° |
| 2026-05-06 23:49 | 30.27938 | -86.22762 | 17548 ft | 383 kts | 103° |
| 2026-05-06 23:49 | 30.26877 | -86.16743 | 17543 ft | 383 kts | 104° |
| 2026-05-06 23:50 | 30.25808 | -86.10691 | 17543 ft | 383 kts | 104° |
| 2026-05-06 23:50 | 30.23670 | -85.98627 | 17547 ft | 383 kts | 103° |
| 2026-05-06 23:50 | 30.22602 | -85.92618 | 17542 ft | 383 kts | 104° |
| 2026-05-06 23:51 | 30.21522 | -85.86570 | 17549 ft | 383 kts | 103° |
| 2026-05-06 23:51 | 30.20443 | -85.80541 | 17542 ft | 384 kts | 104° |
| 2026-05-06 23:51 | 30.19358 | -85.74496 | 17541 ft | 383 kts | 104° |
| 2026-05-06 23:51 | 30.18470 | -85.69552 | 17558 ft | 384 kts | 104° |
| 2026-05-06 23:52 | 30.17927 | -85.66532 | 17547 ft | 382 kts | 104° |
| 2026-05-06 23:52 | 30.17387 | -85.63539 | 17542 ft | 380 kts | 104° |
| 2026-05-06 23:52 | 30.16850 | -85.60554 | 17539 ft | 379 kts | 104° |
| 2026-05-06 23:52 | 30.16312 | -85.57574 | 17544 ft | 378 kts | 104° |
| 2026-05-06 23:53 | 30.15776 | -85.54604 | 17542 ft | 378 kts | 104° |
| 2026-05-06 23:53 | 30.15239 | -85.51635 | 17545 ft | 377 kts | 104° |
| 2026-05-06 23:53 | 30.14701 | -85.48667 | 17543 ft | 378 kts | 104° |
| 2026-05-06 23:53 | 30.14162 | -85.45696 | 17542 ft | 379 kts | 104° |
| 2026-05-06 23:54 | 30.13619 | -85.42718 | 17542 ft | 379 kts | 104° |
| 2026-05-06 23:54 | 30.13073 | -85.39732 | 17541 ft | 380 kts | 104° |
| 2026-05-06 23:54 | 30.12527 | -85.36745 | 17543 ft | 380 kts | 104° |
| 2026-05-06 23:54 | 30.11980 | -85.33760 | 17543 ft | 381 kts | 104° |
| 2026-05-06 23:55 | 30.11432 | -85.30767 | 17543 ft | 380 kts | 104° |
| 2026-05-06 23:55 | 30.10900 | -85.27861 | 17543 ft | 380 kts | 104° |
| 2026-05-06 23:55 | 30.10352 | -85.24872 | 17543 ft | 380 kts | 104° |
| 2026-05-06 23:55 | 30.09803 | -85.21889 | 17545 ft | 380 kts | 104° |
| 2026-05-06 23:56 | 30.09254 | -85.18905 | 17545 ft | 379 kts | 104° |
| 2026-05-06 23:56 | 30.08708 | -85.15939 | 17550 ft | 378 kts | 103° |
| 2026-05-06 23:56 | 30.08161 | -85.12970 | 17554 ft | 377 kts | 104° |
| 2026-05-06 23:56 | 30.07623 | -85.10048 | 17557 ft | 376 kts | 104° |
| 2026-05-06 23:57 | 30.07070 | -85.07055 | 17558 ft | 376 kts | 104° |
| 2026-05-06 23:57 | 30.06531 | -85.04140 | 17557 ft | 376 kts | 103° |
| 2026-05-06 23:57 | 30.05984 | -85.01191 | 17564 ft | 376 kts | 104° |
| 2026-05-06 23:57 | 30.05436 | -84.98242 | 17562 ft | 376 kts | 104° |
| 2026-05-06 23:58 | 30.04879 | -84.95247 | 17558 ft | 377 kts | 103° |
| 2026-05-06 23:58 | 30.04326 | -84.92283 | 17559 ft | 379 kts | 104° |
| 2026-05-06 23:58 | 30.03775 | -84.89339 | 17559 ft | 381 kts | 103° |
| 2026-05-06 23:58 | 30.03207 | -84.86308 | 17556 ft | 382 kts | 103° |
| 2026-05-06 23:59 | 30.02644 | -84.83311 | 17558 ft | 383 kts | 104° |
| 2026-05-06 23:59 | 30.02078 | -84.80309 | 17562 ft | 383 kts | 103° |
| 2026-05-06 23:59 | 30.01522 | -84.77350 | 17558 ft | 385 kts | 103° |
| 2026-05-06 23:59 | 30.00982 | -84.74478 | 17557 ft | 386 kts | 103° |
| 2026-05-07 00:00 | 30.00407 | -84.71428 | 17557 ft | 385 kts | 103° |
| 2026-05-07 00:00 | 29.99836 | -84.68412 | 17556 ft | 385 kts | 103° |
| 2026-05-07 00:00 | 29.99265 | -84.65401 | 17556 ft | 384 kts | 103° |
| 2026-05-07 00:00 | 29.98699 | -84.62406 | 17557 ft | 383 kts | 103° |
| 2026-05-07 00:01 | 29.98128 | -84.59390 | 17558 ft | 383 kts | 103° |
| 2026-05-07 00:01 | 29.97562 | -84.56397 | 17556 ft | 383 kts | 103° |
| 2026-05-07 00:01 | 29.96994 | -84.53398 | 17562 ft | 383 kts | 103° |
| 2026-05-07 00:01 | 29.96428 | -84.50411 | 17575 ft | 382 kts | 103° |
| 2026-05-07 00:02 | 29.95862 | -84.47429 | 17566 ft | 382 kts | 103° |
| 2026-05-07 00:02 | 29.95288 | -84.44414 | 17565 ft | 381 kts | 103° |
| 2026-05-07 00:02 | 29.94717 | -84.41437 | 17567 ft | 381 kts | 103° |
| 2026-05-07 00:02 | 29.94147 | -84.38445 | 17539 ft | 381 kts | 103° |
| 2026-05-07 00:03 | 29.93489 | -84.35483 | 17513 ft | 382 kts | 109° |
| 2026-05-07 00:03 | 29.92540 | -84.32639 | 17504 ft | 381 kts | 116° |
| 2026-05-07 00:03 | 29.91340 | -84.29918 | 17505 ft | 382 kts | 121° |
| 2026-05-07 00:03 | 29.89998 | -84.27262 | 17502 ft | 382 kts | 123° |
| 2026-05-07 00:04 | 29.88610 | -84.24649 | 17503 ft | 383 kts | 124° |
| 2026-05-07 00:04 | 29.87208 | -84.22046 | 17506 ft | 383 kts | 124° |
| 2026-05-07 00:04 | 29.85802 | -84.19433 | 17506 ft | 383 kts | 124° |
| 2026-05-07 00:04 | 29.84408 | -84.16829 | 17508 ft | 383 kts | 124° |
| 2026-05-07 00:05 | 29.83017 | -84.14215 | 17508 ft | 382 kts | 124° |
| 2026-05-07 00:05 | 29.81632 | -84.11601 | 17513 ft | 382 kts | 124° |
| 2026-05-07 00:05 | 29.80248 | -84.08987 | 17513 ft | 382 kts | 124° |
| 2026-05-07 00:05 | 29.78868 | -84.06376 | 17512 ft | 382 kts | 124° |
| 2026-05-07 00:06 | 29.77484 | -84.03760 | 17512 ft | 382 kts | 124° |
| 2026-05-07 00:06 | 29.76111 | -84.01161 | 17512 ft | 382 kts | 124° |
| 2026-05-07 00:06 | 29.74721 | -83.98533 | 17514 ft | 382 kts | 124° |
| 2026-05-07 00:06 | 29.73342 | -83.95925 | 17518 ft | 381 kts | 124° |
| 2026-05-07 00:07 | 29.71969 | -83.93329 | 17518 ft | 380 kts | 124° |
| 2026-05-07 00:07 | 29.70597 | -83.90737 | 17517 ft | 379 kts | 124° |
| 2026-05-07 00:07 | 29.69225 | -83.88146 | 17517 ft | 379 kts | 124° |
| 2026-05-07 00:07 | 29.67856 | -83.85561 | 17517 ft | 378 kts | 125° |
| 2026-05-07 00:08 | 29.66485 | -83.82976 | 17516 ft | 378 kts | 125° |
| 2026-05-07 00:08 | 29.65112 | -83.80393 | 17515 ft | 379 kts | 125° |
| 2026-05-07 00:08 | 29.63737 | -83.77810 | 17516 ft | 380 kts | 125° |
| 2026-05-07 00:08 | 29.62355 | -83.75215 | 17520 ft | 380 kts | 125° |
| 2026-05-07 00:09 | 29.60974 | -83.72626 | 17521 ft | 380 kts | 125° |
| 2026-05-07 00:09 | 29.59593 | -83.70036 | 17521 ft | 381 kts | 125° |
| 2026-05-07 00:09 | 29.58211 | -83.67444 | 17522 ft | 381 kts | 125° |
| 2026-05-07 00:09 | 29.56825 | -83.64847 | 17523 ft | 380 kts | 125° |
| 2026-05-07 00:10 | 29.55442 | -83.62256 | 17523 ft | 380 kts | 125° |
| 2026-05-07 00:10 | 29.54059 | -83.59667 | 17524 ft | 380 kts | 125° |
| 2026-05-07 00:10 | 29.52677 | -83.57081 | 17524 ft | 380 kts | 125° |
| 2026-05-07 00:10 | 29.51292 | -83.54488 | 17525 ft | 380 kts | 125° |
| 2026-05-07 00:11 | 29.49625 | -83.51376 | 17526 ft | 381 kts | 125° |
| 2026-05-07 00:11 | 29.46882 | -83.46260 | 17527 ft | 381 kts | 125° |
| 2026-05-07 00:11 | 29.44068 | -83.41016 | 17528 ft | 381 kts | 125° |
| 2026-05-07 00:11 | 29.41284 | -83.35838 | 17530 ft | 381 kts | 125° |
| 2026-05-07 00:12 | 29.38537 | -83.30730 | 17529 ft | 382 kts | 125° |
| 2026-05-07 00:12 | 29.35753 | -83.25563 | 17529 ft | 382 kts | 124° |
| 2026-05-07 00:12 | 29.32943 | -83.20349 | 17530 ft | 383 kts | 124° |
| 2026-05-07 00:12 | 29.30151 | -83.15173 | 17532 ft | 382 kts | 124° |
| 2026-05-07 00:13 | 29.27372 | -83.10027 | 17531 ft | 382 kts | 124° |
| 2026-05-07 00:13 | 29.24566 | -83.04843 | 17532 ft | 368 kts | 124° |
| 2026-05-07 00:13 | 29.22129 | -83.00266 | 17535 ft | 335 kts | 124° |
| 2026-05-07 00:13 | 29.19584 | -82.95513 | 17534 ft | 363 kts | 124° |
| 2026-05-07 00:14 | 29.16841 | -82.90492 | 17537 ft | 378 kts | 125° |
| 2026-05-07 00:14 | 29.14027 | -82.85331 | 17549 ft | 386 kts | 125° |
| 2026-05-07 00:14 | 29.11149 | -82.80104 | 17542 ft | 390 kts | 125° |
| 2026-05-07 00:14 | 29.08253 | -82.74841 | 17542 ft | 391 kts | 125° |
| 2026-05-07 00:15 | 29.05445 | -82.69509 | 17550 ft | 392 kts | 117° |
| 2026-05-07 00:15 | 29.03804 | -82.63586 | 17562 ft | 392 kts | 102° |
| 2026-05-07 00:15 | 29.03155 | -82.57395 | 17556 ft | 392 kts | 95° |
| 2026-05-07 00:15 | 29.02803 | -82.51188 | 17550 ft | 392 kts | 94° |
| 2026-05-07 00:16 | 29.02507 | -82.44951 | 17546 ft | 394 kts | 94° |
| 2026-05-07 00:16 | 29.02217 | -82.38695 | 17542 ft | 394 kts | 94° |
| 2026-05-07 00:16 | 29.01922 | -82.32446 | 17553 ft | 394 kts | 94° |
| 2026-05-07 00:16 | 29.01626 | -82.26197 | 17542 ft | 395 kts | 94° |
| 2026-05-07 00:17 | 29.01330 | -82.19942 | 17538 ft | 394 kts | 94° |
| 2026-05-07 00:17 | 29.01037 | -82.13709 | 17542 ft | 393 kts | 93° |
| 2026-05-07 00:17 | 29.00746 | -82.07474 | 17541 ft | 393 kts | 94° |
| 2026-05-07 00:17 | 29.00458 | -82.01254 | 17537 ft | 394 kts | 93° |
| 2026-05-07 00:18 | 29.00172 | -81.95234 | 17548 ft | 393 kts | 93° |
| 2026-05-07 00:18 | 28.99774 | -81.92160 | 17542 ft | 390 kts | 109° |
| 2026-05-07 00:18 | 28.98530 | -81.89421 | 17545 ft | 388 kts | 127° |
| 2026-05-07 00:18 | 28.96790 | -81.87087 | 17543 ft | 386 kts | 136° |
| 2026-05-07 00:19 | 28.94850 | -81.84990 | 17258 ft | 393 kts | 141° |
| 2026-05-07 00:19 | 28.92745 | -81.82900 | 16818 ft | 397 kts | 142° |
| 2026-05-07 00:19 | 28.90688 | -81.80817 | 16404 ft | 398 kts | 140° |
| 2026-05-07 00:19 | 28.88652 | -81.78648 | 15940 ft | 399 kts | 137° |
| 2026-05-07 00:20 | 28.86776 | -81.76307 | 15498 ft | 402 kts | 133° |
| 2026-05-07 00:20 | 28.85044 | -81.73984 | 15095 ft | 402 kts | 132° |
| 2026-05-07 00:20 | 28.83224 | -81.71546 | 14584 ft | 402 kts | 132° |
| 2026-05-07 00:20 | 28.81403 | -81.69145 | 14012 ft | 402 kts | 133° |
| 2026-05-07 00:21 | 28.79569 | -81.66720 | 13433 ft | 401 kts | 132° |
| 2026-05-07 00:21 | 28.77752 | -81.64318 | 12872 ft | 400 kts | 132° |
| 2026-05-07 00:21 | 28.75944 | -81.61933 | 12291 ft | 397 kts | 132° |
| 2026-05-07 00:21 | 28.74207 | -81.59640 | 11691 ft | 380 kts | 132° |
| 2026-05-07 00:22 | 28.72477 | -81.57354 | 11006 ft | 372 kts | 132° |
| 2026-05-07 00:22 | 28.70805 | -81.55146 | 10345 ft | 364 kts | 131° |
| 2026-05-07 00:22 | 28.69173 | -81.52993 | 9695 ft | 352 kts | 133° |
| 2026-05-07 00:22 | 28.67653 | -81.50985 | 9046 ft | 318 kts | 132° |
| 2026-05-07 00:23 | 28.66294 | -81.49169 | 8404 ft | 291 kts | 132° |
| 2026-05-07 00:23 | 28.65022 | -81.47467 | 7752 ft | 266 kts | 133° |
| 2026-05-07 00:23 | 28.63876 | -81.45933 | 7019 ft | 247 kts | 132° |
| 2026-05-07 00:23 | 28.63144 | -81.44965 | 6481 ft | 243 kts | 132° |
| 2026-05-07 00:24 | 28.61695 | -81.43058 | 5643 ft | 227 kts | 131° |
| 2026-05-07 00:24 | 28.61048 | -81.42199 | 5547 ft | 202 kts | 131° |
| 2026-05-07 00:24 | 28.60218 | -81.41112 | 5197 ft | 156 kts | 132° |
| 2026-05-07 00:24 | 28.59459 | -81.40105 | 4422 ft | 105 kts | 132° |
| 2026-05-07 00:25 | 28.58998 | -81.39499 | 3719 ft | 99 kts | 134° |
| 2026-05-07 00:25 | 28.58690 | -81.39105 | 3241 ft | 98 kts | 135° |
| 2026-05-07 00:25 | 28.58247 | -81.38539 | 2565 ft | 97 kts | 135° |
| 2026-05-07 00:25 | 28.57804 | -81.37965 | 1898 ft | 95 kts | 134° |
| 2026-05-07 00:26 | 28.57378 | -81.37402 | 1287 ft | 88 kts | 138° |
| 2026-05-07 00:26 | 28.56989 | -81.36882 | 958 ft | 84 kts | 131° |
| 2026-05-07 00:26 | 28.56626 | -81.36372 | 785 ft | 84 kts | 125° |
| 2026-05-07 00:26 | 28.56241 | -81.35859 | 642 ft | 89 kts | 129° |
| 2026-05-07 00:27 | 28.55800 | -81.35322 | 585 ft | 100 kts | 129° |
| 2026-05-07 00:27 | 28.55342 | -81.34740 | 351 ft | 107 kts | 124° |
| 2026-05-07 00:27 | 28.55297 | -81.34240 | 144 ft | 39 kts | 157° |
| 2026-05-07 00:27 | 28.55072 | -81.34138 | 119 ft | 28 kts | 138° |
| 2026-05-07 00:28 | 28.55033 | -81.34097 | 119 ft | 22 kts | 135° |